Time;durP1;ratioP1;P1;durP2;ratioP2;P2;SDS_P1;SDS_P2;PMS_P1;PMS_P2;Temp;Humidity;BMP_temperature;BMP_pressure;BME280_temperature;BME280_humidity;BME280_pressure;Samples;Min_cycle;Max_cycle;Signal;HPM_P1;HPM_P2
2021/11/13 00:38:32;;;;;;;34.00;12.30;;;;;;;;;;6237486;23;20251;-91
2021/11/13 00:41:38;;;;;;;39.50;14.17;;;;;;;;;;6219751;23;20191;-91
2021/11/13 00:44:44;;;;;;;34.67;12.77;;;;;;;;;;6236910;23;20175;-91
2021/11/13 00:47:49;;;;;;;32.70;11.90;;;;;;;;;;6218448;23;20174;-91
2021/11/13 00:50:55;;;;;;;30.97;12.67;;;;;;;;;;6217644;23;20167;-92
2021/11/13 00:54:03;;;;;;;28.33;11.87;;;;;;;;;;6217847;23;20163;-92
2021/11/13 00:57:08;;;;;;;30.17;11.83;;;;;;;;;;6217901;23;20167;-90
2021/11/13 01:00:16;;;;;;;34.43;11.70;;;;;;;;;;6218434;23;20202;-90
2021/11/13 01:03:24;;;;;;;30.43;12.03;;;;;;;;;;6217254;23;20254;-92
2021/11/13 01:06:30;;;;;;;33.67;12.20;;;;;;;;;;6216255;23;20260;-92
2021/11/13 01:09:38;;;;;;;33.40;12.30;;;;;;;;;;6216832;23;20159;-89
2021/11/13 01:12:43;;;;;;;28.50;11.83;;;;;;;;;;6216114;23;20166;-90
2021/11/13 01:15:49;;;;;;;33.73;11.80;;;;;;;;;;6218902;23;20167;-92
2021/11/13 01:18:55;;;;;;;28.60;11.80;;;;;;;;;;6218530;23;20549;-90
2021/11/13 01:22:00;;;;;;;29.40;11.37;;;;;;;;;;6217774;23;20230;-91
2021/11/13 01:25:08;;;;;;;33.50;12.33;;;;;;;;;;6216695;23;20162;-90
2021/11/13 01:28:13;;;;;;;32.27;11.43;;;;;;;;;;6217247;23;20183;-90
2021/11/13 01:31:20;;;;;;;32.37;12.60;;;;;;;;;;6218036;23;20169;-90
2021/11/13 01:34:25;;;;;;;32.87;12.20;;;;;;;;;;6217499;23;20175;-93
2021/11/13 01:37:30;;;;;;;29.97;11.60;;;;;;;;;;6218864;23;20179;-92
2021/11/13 01:40:38;;;;;;;34.93;13.73;;;;;;;;;;6217603;23;20191;-91
2021/11/13 01:43:44;;;;;;;32.63;12.50;;;;;;;;;;6217362;23;20219;-93
2021/11/13 01:46:50;;;;;;;35.53;12.30;;;;;;;;;;6216879;23;20198;-95
2021/11/13 01:49:56;;;;;;;32.00;12.40;;;;;;;;;;6216410;23;20170;-92
2021/11/13 01:53:02;;;;;;;36.83;12.57;;;;;;;;;;6216586;23;20178;-91
2021/11/13 01:56:17;;;;;;;32.70;12.30;;;;;;;;;;6217634;23;20194;-91
2021/11/13 01:59:24;;;;;;;32.30;12.57;;;;;;;;;;6218904;23;20224;-92
2021/11/13 02:02:30;;;;;;;37.20;14.13;;;;;;;;;;6219315;23;20171;-92
2021/11/13 02:05:37;;;;;;;36.17;11.87;;;;;;;;;;6217880;23;20175;-90
2021/11/13 02:08:43;;;;;;;29.53;11.83;;;;;;;;;;6217677;23;20163;-92
2021/11/13 02:11:50;;;;;;;31.50;11.87;;;;;;;;;;6217204;23;20243;-91
2021/11/13 02:14:56;;;;;;;29.93;11.60;;;;;;;;;;6216672;23;20159;-91
2021/11/13 02:18:01;;;;;;;34.60;12.50;;;;;;;;;;6217766;23;20170;-91
2021/11/13 02:21:09;;;;;;;31.03;11.80;;;;;;;;;;6216451;23;20176;-91
2021/11/13 02:24:15;;;;;;;30.73;11.57;;;;;;;;;;6217689;23;20218;-92
2021/11/13 02:27:23;;;;;;;30.77;12.57;;;;;;;;;;6216544;23;20263;-93
2021/11/13 02:30:31;;;;;;;31.50;12.27;;;;;;;;;;6217497;23;20187;-90
2021/11/13 02:34:19;;;;;;;32.57;12.83;;;;;;;;;;6217308;23;20155;-92
2021/11/13 02:37:37;;;;;;;32.77;12.77;;;;;;;;;;6217407;23;20190;-92
2021/11/13 02:40:43;;;;;;;35.10;12.33;;;;;;;;;;6216778;23;20180;-93
2021/11/13 02:43:49;;;;;;;33.57;12.13;;;;;;;;;;6217666;23;20167;-90
2021/11/13 02:46:54;;;;;;;35.80;12.23;;;;;;;;;;6217021;23;20251;-92
2021/11/13 02:50:00;;;;;;;44.30;13.57;;;;;;;;;;6215726;23;20164;-91
2021/11/13 02:53:18;;;;;;;36.87;12.10;;;;;;;;;;6213743;23;20155;-92
2021/11/13 02:56:25;;;;;;;29.40;11.87;;;;;;;;;;6213870;23;20226;-91
2021/11/13 02:59:31;;;;;;;36.57;12.50;;;;;;;;;;6212835;23;20210;-91
2021/11/13 03:02:37;;;;;;;33.47;11.93;;;;;;;;;;6213795;23;20219;-92
2021/11/13 03:05:46;;;;;;;30.33;11.40;;;;;;;;;;6214351;23;20167;-91
2021/11/13 03:08:54;;;;;;;33.83;12.33;;;;;;;;;;6214531;23;20222;-91
2021/11/13 03:11:59;;;;;;;30.83;12.23;;;;;;;;;;6214511;23;20159;-92
2021/11/13 03:15:10;;;;;;;31.13;11.80;;;;;;;;;;6213221;23;20165;-92
2021/11/13 03:18:16;;;;;;;30.13;11.87;;;;;;;;;;6214843;23;20259;-92
2021/11/13 03:21:22;;;;;;;32.13;11.70;;;;;;;;;;6213704;23;20171;-91
2021/11/13 03:24:30;;;;;;;33.70;12.23;;;;;;;;;;6214606;23;20160;-91
2021/11/13 03:27:36;;;;;;;33.00;12.97;;;;;;;;;;6213963;23;20234;-92
2021/11/13 03:30:42;;;;;;;39.70;13.43;;;;;;;;;;6211868;23;20591;-92
2021/11/13 03:34:29;;;;;;;32.03;12.47;;;;;;;;;;6213632;23;20222;-91
2021/11/13 03:37:35;;;;;;;35.77;11.53;;;;;;;;;;6213756;23;20239;-92
2021/11/13 03:40:43;;;;;;;32.60;12.00;;;;;;;;;;6213583;23;20199;-91
2021/11/13 03:43:49;;;;;;;37.10;12.57;;;;;;;;;;6212910;23;20183;-90
2021/11/13 03:46:54;;;;;;;35.93;12.80;;;;;;;;;;6213452;23;20195;-91
2021/11/13 03:50:00;;;;;;;35.17;12.17;;;;;;;;;;6213650;23;20247;-92
2021/11/13 03:53:05;;;;;;;33.57;11.90;;;;;;;;;;6215997;23;20171;-93
2021/11/13 03:56:12;;;;;;;34.43;11.87;;;;;;;;;;6215125;23;20171;-92
2021/11/13 03:59:17;;;;;;;38.97;12.40;;;;;;;;;;6214477;23;20171;-93
2021/11/13 04:02:23;;;;;;;30.63;12.50;;;;;;;;;;6213782;23;20158;-92
2021/11/13 04:05:28;;;;;;;27.57;11.80;;;;;;;;;;6215087;23;20154;-93
2021/11/13 04:08:35;;;;;;;32.70;11.87;;;;;;;;;;6215857;23;20162;-93
2021/11/13 04:11:42;;;;;;;29.07;11.30;;;;;;;;;;6217353;23;20178;-92
2021/11/13 04:14:48;;;;;;;25.20;9.90;;;;;;;;;;6216561;23;20171;-90
2021/11/13 04:17:56;;;;;;;30.90;10.63;;;;;;;;;;6217417;23;20236;-92
2021/11/13 04:21:01;;;;;;;29.20;11.07;;;;;;;;;;6216910;23;20167;-89
2021/11/13 04:24:08;;;;;;;24.33;10.07;;;;;;;;;;6219739;23;20191;-92
2021/11/13 04:27:16;;;;;;;25.63;10.07;;;;;;;;;;6215842;23;20182;-92
2021/11/13 04:30:22;;;;;;;27.63;10.57;;;;;;;;;;6217037;23;20210;-91
2021/11/13 04:33:29;;;;;;;26.23;10.43;;;;;;;;;;6215672;23;20210;-92
2021/11/13 04:36:38;;;;;;;24.53;10.17;;;;;;;;;;6214902;23;20174;-90
2021/11/13 04:39:44;;;;;;;25.87;10.87;;;;;;;;;;6214489;23;20154;-92
2021/11/13 04:42:55;;;;;;;28.30;10.80;;;;;;;;;;6215205;23;20175;-92
2021/11/13 04:46:01;;;;;;;28.53;10.63;;;;;;;;;;6213991;23;20484;-91
2021/11/13 04:49:06;;;;;;;28.63;11.33;;;;;;;;;;6214123;23;20211;-91
2021/11/13 04:52:19;;;;;;;30.33;11.20;;;;;;;;;;6214354;23;20171;-93
2021/11/13 04:55:25;;;;;;;28.33;10.93;;;;;;;;;;6213399;23;20171;-92
2021/11/13 04:58:34;;;;;;;23.73;10.67;;;;;;;;;;6212158;23;20266;-90
2021/11/13 05:05:59;;;;;;;27.37;11.10;;;;;;;;;;6232098;23;20163;-91
2021/11/13 05:09:05;;;;;;;27.67;11.23;;;;;;;;;;6213341;23;20171;-92
2021/11/13 05:12:11;;;;;;;26.20;11.53;;;;;;;;;;6212772;23;20227;-92
2021/11/13 05:15:18;;;;;;;33.17;12.20;;;;;;;;;;6212452;23;20199;-92
2021/11/13 05:18:24;;;;;;;32.23;11.73;;;;;;;;;;6213115;23;20189;-91
2021/11/13 05:21:29;;;;;;;31.87;12.23;;;;;;;;;;6216381;23;20202;-91
2021/11/13 05:24:36;;;;;;;30.77;11.37;;;;;;;;;;6216206;23;20530;-93
2021/11/13 05:27:42;;;;;;;35.10;12.90;;;;;;;;;;6215433;23;20274;-91
2021/11/13 05:30:49;;;;;;;36.07;12.83;;;;;;;;;;6215634;23;20175;-91
2021/11/13 05:33:54;;;;;;;35.80;12.77;;;;;;;;;;6214745;23;20175;-91
2021/11/13 05:37:05;;;;;;;34.00;13.00;;;;;;;;;;6214645;23;20193;-92
2021/11/13 05:40:12;;;;;;;29.47;11.57;;;;;;;;;;6219000;23;20168;-92
2021/11/13 05:43:22;;;;;;;27.50;11.30;;;;;;;;;;6218877;23;20208;-91
2021/11/13 05:46:30;;;;;;;31.27;10.93;;;;;;;;;;6220268;23;20249;-91
2021/11/13 05:49:39;;;;;;;27.80;11.63;;;;;;;;;;6219496;23;20192;-93
2021/11/13 12:34:05;;;;;;;44.83;14.53;;;;;;;;;;6221491;22;20199;-89
2021/11/13 12:37:13;;;;;;;39.47;13.63;;;;;;;;;;6215072;23;20611;-87
2021/11/13 12:40:40;;;;;;;40.57;14.13;;;;;;;;;;6213317;23;20190;-88
2021/11/13 12:44:03;;;;;;;40.20;13.87;;;;;;;;;;6198806;23;20162;-89
2021/11/13 12:47:20;;;;;;;39.63;13.67;;;;;;;;;;6215056;23;20202;-89
2021/11/13 12:50:28;;;;;;;38.93;14.40;;;;;;;;;;6212686;23;20171;-89
2021/11/13 12:53:48;;;;;;;41.23;13.90;;;;;;;;;;6214615;23;20171;-90
2021/11/13 12:56:58;;;;;;;39.83;13.90;;;;;;;;;;6213377;23;20203;-90
2021/11/13 13:00:07;;;;;;;33.40;12.53;;;;;;;;;;6215432;23;20197;-89
2021/11/13 13:03:21;;;;;;;37.50;12.37;;;;;;;;;;6214397;23;20275;-87
2021/11/13 13:06:26;;;;;;;35.60;12.80;;;;;;;;;;6213603;23;20208;-89
2021/11/13 13:09:33;;;;;;;44.97;14.13;;;;;;;;;;6215697;23;20175;-89
2021/11/13 13:12:42;;;;;;;40.30;13.83;;;;;;;;;;6213090;23;20179;-88
2021/11/13 13:15:54;;;;;;;40.40;13.47;;;;;;;;;;6213301;23;20251;-91
2021/11/13 13:19:02;;;;;;;44.67;13.97;;;;;;;;;;6217095;23;20157;-89
2021/11/13 13:22:09;;;;;;;41.50;15.97;;;;;;;;;;6222389;23;20183;-89
2021/11/13 13:25:15;;;;;;;45.87;15.07;;;;;;;;;;6214119;23;20169;-92
2021/11/13 13:28:24;;;;;;;48.60;16.03;;;;;;;;;;6214591;23;20222;-89
2021/11/13 13:31:29;;;;;;;45.27;15.80;;;;;;;;;;6213486;23;20287;-90
2021/11/13 13:34:35;;;;;;;46.70;15.77;;;;;;;;;;6212705;23;20182;-90
2021/11/13 13:37:48;;;;;;;38.17;13.37;;;;;;;;;;6213416;23;20211;-90
2021/11/13 13:40:55;;;;;;;39.57;13.23;;;;;;;;;;6212841;23;20254;-92
2021/11/13 13:44:02;;;;;;;37.77;13.17;;;;;;;;;;6212233;23;20170;-91
2021/11/13 13:47:08;;;;;;;40.90;14.43;;;;;;;;;;6214919;23;20182;-90
2021/11/13 13:50:13;;;;;;;44.20;14.17;;;;;;;;;;6215208;23;20168;-89
2021/11/13 13:53:19;;;;;;;38.90;13.20;;;;;;;;;;6212803;23;20175;-88
2021/11/13 13:56:34;;;;;;;37.53;13.03;;;;;;;;;;6214939;23;20163;-90
2021/11/13 14:00:04;;;;;;;36.63;12.90;;;;;;;;;;6215646;23;20154;-88
2021/11/13 14:03:22;;;;;;;36.27;13.40;;;;;;;;;;6238059;23;20171;-91
2021/11/13 14:06:30;;;;;;;40.87;12.90;;;;;;;;;;6212838;23;20168;-90
2021/11/13 14:09:36;;;;;;;37.20;14.03;;;;;;;;;;6212291;23;20192;-89
2021/11/13 14:12:51;;;;;;;32.53;12.03;;;;;;;;;;6213242;23;20171;-89
2021/11/13 14:15:58;;;;;;;35.87;13.33;;;;;;;;;;6214814;23;20497;-90
2021/11/13 14:19:11;;;;;;;38.67;13.63;;;;;;;;;;6211550;23;20170;-91
2021/11/13 14:22:18;;;;;;;46.80;15.97;;;;;;;;;;6213200;23;20265;-90
2021/11/13 14:25:23;;;;;;;47.87;15.53;;;;;;;;;;6213368;23;20160;-92
2021/11/13 14:28:30;;;;;;;42.30;14.90;;;;;;;;;;6214043;23;20199;-92
2021/11/13 14:31:38;;;;;;;43.07;14.20;;;;;;;;;;6216687;23;20171;-91
2021/11/13 14:34:46;;;;;;;42.47;15.00;;;;;;;;;;6215895;23;20172;-87
2021/11/13 14:37:53;;;;;;;46.40;15.07;;;;;;;;;;6215118;23;20174;-90
2021/11/13 14:41:00;;;;;;;41.63;14.03;;;;;;;;;;6218246;23;20151;-89
2021/11/13 14:44:13;;;;;;;38.63;14.10;;;;;;;;;;6216684;23;20210;-90
2021/11/13 14:47:23;;;;;;;41.17;15.20;;;;;;;;;;6215373;23;20183;-90
2021/11/13 14:50:32;;;;;;;38.90;14.13;;;;;;;;;;6231078;23;20171;-91
2021/11/13 14:53:38;;;;;;;39.50;13.33;;;;;;;;;;6214261;23;20186;-89
2021/11/13 14:56:44;;;;;;;34.67;12.67;;;;;;;;;;6214551;23;20254;-87
2021/11/13 14:59:55;;;;;;;66.93;27.97;;;;;;;;;;6213914;23;20214;-89
2021/11/13 15:03:09;;;;;;;43.47;17.13;;;;;;;;;;6213513;23;20238;-89
2021/11/13 15:06:18;;;;;;;33.90;12.97;;;;;;;;;;6214752;23;20167;-89
2021/11/13 15:09:24;;;;;;;36.17;13.90;;;;;;;;;;6213991;23;20299;-90
2021/11/13 15:12:31;;;;;;;44.77;17.97;;;;;;;;;;6214539;23;20167;-90
2021/11/13 15:15:37;;;;;;;35.77;13.67;;;;;;;;;;6215610;23;20170;-89
2021/11/13 15:22:05;;;;;;;50.10;16.73;;;;;;;;;;6216917;23;20251;-91
